Latest Weather Observations for Cobar Airport

IDN60801

Issued at 10:52 am EST Monday 16 September 2019 (issued every 10 minutes, with the page automatically refreshed every 10 minutes)

About weather observations | Map of weather stations | Latest weather observations for NSW | Other Formats
Station Details ID: 048237 Name: COBAR AIRPORT AWS Lat: -31.54 Lon: 145.80 Height: 218.0 m
Data from the previous 72 hours. | See also: Recent months at Cobar Airport
Date/Time
EST
Temp
°C
App
Temp
°C
Dew
Point
°C
Rel
Hum
%
Delta-T
°C
Wind Press
QNH
hPa
Press
MSL
hPa
Rain since
9am
mm
Dir  Spd
km/h
Gust
km/h
Spd
kts
Gust
kts
16/10:30am 27.4 19.9 -13.3 6 15.2 NNW 22 35 12 19 1017.8 1017.6 0.0
16/10:00am 26.1 17.8 -14.2 6 14.5 NNW 26 37 14 20 1018.0 1017.8 0.0
16/09:30am 24.2 16.7 -13.7 7 13.5 NNW 22 30 12 16 1018.3 1018.1 0.0
16/09:00am 24.8 16.6 -13.3 7 13.8 NNW 26 35 14 19 1018.3 1018.1 0.0
16/08:30am 23.1 15.7 -12.9 8 12.9 NNW 22 26 12 14 1018.1 1017.9 0.0
16/08:00am 21.0 14.5 -13.0 9 11.8 N 17 20 9 11 1018.0 1017.8 0.0
16/07:30am 18.1 13.2 -11.7 12 10.3 N 9 15 5 8 1017.9 1017.7 0.0
16/07:00am 14.7 9.8 -12.5 14 8.8 NE 9 13 5 7 1017.9 1017.7 0.0
16/06:30am 14.0 8.7 -12.2 15 8.5 NE 11 11 6 6 1017.9 1017.7 0.0
16/06:00am 14.0 8.7 -12.2 15 8.5 NE 11 13 6 7 1017.8 1017.6 0.0
16/05:30am 14.1 8.8 -12.1 15 8.5 NE 11 13 6 7 1017.8 1017.6 0.0
16/05:00am 13.5 7.8 -11.8 16 8.2 NE 13 15 7 8 1017.9 1017.7 0.0
16/04:30am 13.8 8.6 -10.8 17 8.2 NE 11 15 6 8 1017.8 1017.6 0.0
16/04:00am 11.4 7.0 -10.1 21 7.0 NE 7 9 4 5 1017.9 1017.7 0.0
16/03:30am 10.6 6.2 -9.6 23 6.6 NE 7 7 4 4 1018.0 1017.8 0.0
16/03:00am 10.1 5.9 -10.1 23 6.5 NE 6 7 3 4 1018.3 1018.1 0.0
16/02:30am 10.2 5.9 -11.7 20 6.8 NE 6 9 3 5 1018.5 1018.3 0.0
16/02:00am 10.7 6.3 -9.6 23 6.6 NE 7 9 4 5 1018.8 1018.6 0.0
16/01:30am 9.9 5.5 -10.2 23 6.4 ENE 7 9 4 5 1019.3 1019.1 0.0
16/01:00am 10.1 5.9 -9.5 24 6.4 ENE 6 7 3 4 1019.6 1019.3 0.0
16/12:30am 9.7 5.4 -11.5 21 6.5 ENE 6 7 3 4 1019.7 1019.4 0.0
16/12:00am 10.4 5.9 -11.6 20 6.8 NE 7 9 4 5 1019.9 1019.6 0.0
 
Date/Time
EST
Temp
°C
App
Temp
°C
Dew
Point
°C
Rel
Hum
%
Delta-T
°C
Wind Press
QNH
hPa
Press
MSL
hPa
Rain since
9am
mm
Dir  Spd
km/h
Gust
km/h
Spd
kts
Gust
kts
15/11:30pm 11.0 6.5 -11.7 19 7.1 NE 7 9 4 5 1019.9 1019.6 0.0
15/11:00pm 11.4 6.9 -11.4 19 7.2 NE 7 7 4 4 1020.2 1019.9 0.0
15/10:30pm 11.3 6.8 -12.1 18 7.3 NE 7 9 4 5 1020.4 1020.1 0.0
15/10:00pm 12.4 8.1 -11.2 18 7.6 NE 6 7 3 4 1020.5 1020.2 0.0
15/09:30pm 12.8 8.3 -11.6 17 7.9 NE 7 7 4 4 1020.7 1020.4 0.0
15/09:00pm 13.7 9.4 -11.6 16 8.2 NE 6 7 3 4 1020.9 1020.6 0.0
15/08:30pm 14.4 11.2 -11.9 15 8.6 CALM 0 6 0 3 1020.9 1020.6 0.0
15/08:00pm 16.0 11.5 -12.4 13 9.4 NE 7 9 4 5 1020.8 1020.5 0.0
15/07:30pm 17.4 13.7 -13.3 11 10.2 SSE 2 6 1 3 1020.6 1020.3 0.0
15/07:00pm 19.0 15.7 -14.5 9 11.0 CALM 0 0 0 0 1020.4 1020.1 0.0
15/06:30pm 23.7 19.1 -14.1 7 13.3 NW 7 9 4 5 1020.1 1019.8 0.0
15/06:00pm 26.6 21.6 -13.9 6 14.8 NW 9 13 5 7 1020.0 1019.7 0.0
15/05:30pm 28.1 22.4 -12.8 6 15.5 NW 13 17 7 9 1019.8 1019.5 0.0
15/05:00pm 28.6 22.5 -12.4 6 15.7 NW 15 26 8 14 1019.8 1019.5 0.0
15/04:30pm 28.9 23.2 -12.2 6 15.9 WNW 13 20 7 11 1019.7 1019.4 0.0
15/04:00pm 28.7 22.9 -14.6 5 16.0 NW 13 22 7 12 1019.7 1019.4 0.0
15/03:30pm 28.2 22.4 -15.0 5 15.8 NW 13 26 7 14 1019.8 1019.5 0.0
15/03:00pm 28.6 22.8 -14.7 5 15.9 N 13 22 7 12 1020.0 1019.7 0.0
15/02:30pm 28.2 22.7 -15.0 5 15.8 N 11 19 6 10 1020.1 1019.8 0.0
15/02:00pm 28.1 21.1 -15.0 5 15.7 WNW 19 35 10 19 1020.6 1020.3 0.0
15/01:30pm 28.3 22.8 -14.9 5 15.8 NNE 11 19 6 10 1021.1 1020.8 0.0
15/01:00pm 28.2 22.6 -10.8 7 15.3 W 13 20 7 11 1021.6 1021.4 0.0
15/12:30pm 27.3 21.7 -11.5 7 14.9 WNW 13 20 7 11 1022.3 1022.1 0.0
15/12:00pm 27.2 21.3 -9.9 8 14.6 NW 15 24 8 13 1022.8 1022.6 0.0
15/11:30am 26.3 20.6 -7.7 10 13.9 NNW 15 20 8 11 1023.3 1023.1 0.0
15/11:00am 25.0 19.6 -8.7 10 13.3 NW 13 19 7 10 1023.6 1023.4 0.0
15/10:30am 24.5 20.1 -5.7 13 12.6 N 9 15 5 8 1023.9 1023.7 0.0
15/10:00am 22.7 18.7 -6.1 14 11.6 NNE 7 11 4 6 1024.7 1024.4 0.0
15/09:30am 21.6 17.4 -3.7 18 10.7 NNE 9 15 5 8 1024.9 1024.6 0.0
15/09:00am 20.7 16.2 -3.0 20 10.0 NE 11 15 6 8 1025.1 1024.8 0.0
15/08:30am 18.8 13.5 -3.3 22 9.1 ENE 15 20 8 11 1025.1 1024.8 0.0
15/08:00am 17.0 11.7 -3.7 24 8.3 ENE 15 20 8 11 1025.2 1024.9 0.0
15/07:30am 14.2 9.7 -3.6 29 7.0 ENE 11 15 6 8 1024.8 1024.5 0.0
15/07:23am 12.0 7.8 -3.8 33 6.0 ENE 9 13 5 7 1024.7 1024.4 0.0
15/07:00am 6.9 3.0 -6.1 39 4.4 ENE 6 9 3 5 1024.5 1024.2 0.0
15/06:30am 3.0 -1.1 -9.3 40 3.8 NE 6 7 3 4 1024.1 1023.9 0.0
15/06:00am 2.7 -1.6 -9.5 40 3.7 NE 7 9 4 5 1024.0 1023.8 0.0
15/05:30am 3.2 -1.1 -8.5 42 3.7 NE 7 7 4 4 1023.8 1023.6 0.0
15/05:00am 3.7 -0.3 -7.4 44 3.5 NE 6 9 3 5 1023.6 1023.4 0.0
15/04:30am 4.0 1.1 -8.0 41 3.7 CALM 0 0 0 0 1023.5 1023.3 0.0
15/04:00am 3.8 0.7 -10.2 35 4.3 CALM 0 0 0 0 1023.3 1023.1 0.0
15/03:30am 4.9 2.0 -8.2 38 4.1 CALM 0 0 0 0 1023.3 1023.1 0.0
15/03:00am 5.3 2.4 -8.5 36 4.3 CALM 0 0 0 0 1023.5 1023.3 0.0
15/02:30am 5.5 2.5 -9.5 33 4.6 CALM 0 0 0 0 1023.4 1023.2 0.0
15/02:00am 6.4 2.8 -7.9 35 4.6 NE 4 7 2 4 1023.5 1023.3 0.0
15/01:30am 6.9 3.3 -7.9 34 4.8 NE 4 6 2 3 1024.0 1023.8 0.0
15/01:00am 7.8 3.8 -7.1 34 5.0 NE 6 7 3 4 1024.2 1024.0 0.0
15/12:30am 7.6 4.8 -6.9 35 4.9 CALM 0 0 0 0 1024.6 1024.3 0.0
15/12:00am 7.6 3.9 -8.4 31 5.1 ESE 4 6 2 3 1024.8 1024.5 0.0
 
Date/Time
EST
Temp
°C
App
Temp
°C
Dew
Point
°C
Rel
Hum
%
Delta-T
°C
Wind Press
QNH
hPa
Press
MSL
hPa
Rain since
9am
mm
Dir  Spd
km/h
Gust
km/h
Spd
kts
Gust
kts
14/11:30pm 8.1 5.2 -8.0 31 5.3 CALM 0 0 0 0 1024.5 1024.2 0.0
14/11:00pm 9.0 5.8 -7.6 30 5.5 NE 2 6 1 3 1024.7 1024.4 0.0
14/10:30pm 9.7 5.7 -7.4 29 5.8 NE 6 6 3 3 1025.0 1024.7 0.0
14/10:00pm 10.6 7.8 -7.1 28 6.1 CALM 0 0 0 0 1025.1 1024.8 0.0
14/09:30pm 10.8 8.0 -7.4 27 6.3 CALM 0 0 0 0 1025.0 1024.7 0.0
14/09:00pm 12.4 8.3 -6.5 26 6.8 NE 7 9 4 5 1024.6 1024.3 0.0
14/08:30pm 13.3 10.6 -6.3 25 7.2 CALM 0 7 0 4 1024.9 1024.6 0.0
14/08:00pm 15.0 12.3 -5.9 23 7.8 CALM 0 0 0 0 1024.9 1024.6 0.0
14/07:30pm 15.5 12.8 -5.5 23 8.0 CALM 0 0 0 0 1024.4 1024.1 0.0
14/07:00pm 18.1 13.8 -5.2 20 9.1 SSE 9 9 5 5 1024.0 1023.8 0.0
14/06:30pm 21.3 16.9 -5.5 16 10.9 SSE 9 9 5 5 1023.9 1023.7 0.0
14/06:00pm 24.3 19.2 -4.9 14 12.3 SSE 13 17 7 9 1023.6 1023.4 0.0
14/05:30pm 25.4 20.3 -5.0 13 12.9 SSE 13 20 7 11 1023.3 1023.1 0.0
14/05:00pm 25.8 20.4 -4.7 13 13.0 SSW 15 22 8 12 1023.0 1022.8 0.0
14/04:30pm 25.8 19.5 -5.7 12 13.3 S 19 24 10 13 1023.0 1022.8 0.0
14/04:00pm 25.5 20.6 -3.0 15 12.5 SSE 13 26 7 14 1023.0 1022.8 0.0
14/03:30pm 26.2 20.4 -4.4 13 13.2 SSW 17 24 9 13 1023.2 1023.0 0.0
14/03:00pm 25.8 20.1 -3.7 14 12.8 SSW 17 26 9 14 1023.5 1023.3 0.0
14/02:30pm 26.3 20.9 -1.5 16 12.7 SSW 17 24 9 13 1023.6 1023.4 0.0
14/02:00pm 25.9 20.1 -0.2 18 12.1 S 20 30 11 16 1024.0 1023.8 0.0
14/01:30pm 24.9 20.2 3.0 24 10.8 S 17 30 9 16 1024.5 1024.2 0.0
14/01:00pm 23.8 17.9 1.4 23 10.5 S 22 32 12 17 1024.9 1024.6 0.0
14/12:30pm 23.2 18.5 3.2 27 9.7 S 17 32 9 17 1025.2 1024.9 0.0
14/12:00pm 23.2 18.0 3.7 28 9.5 SSW 20 28 11 15 1025.7 1025.5 0.0
14/11:30am 21.7 17.6 4.3 32 8.6 SSE 15 26 8 14 1026.1 1025.9 0.0
14/11:00am 21.4 17.0 4.9 34 8.2 S 17 24 9 13 1026.3 1026.1 0.0
14/10:30am 20.5 15.2 4.9 36 7.7 S 22 32 12 17 1026.7 1026.5 0.0
14/10:00am 19.4 14.0 2.3 32 7.9 S 20 26 11 14 1026.7 1026.5 0.0
14/09:30am 18.9 14.0 1.9 32 7.8 S 17 22 9 12 1026.9 1026.7 0.0
14/09:00am 17.6 12.3 2.0 35 7.1 S 19 26 10 14 1026.8 1026.6 0.0
14/08:30am 15.5 10.5 1.3 38 6.3 S 17 24 9 13 1026.7 1026.5 0.0
14/08:00am 12.0 9.8 -1.5 39 5.4 CALM 0 6 0 3 1026.6 1026.4 0.0
14/07:30am 8.2 5.8 -3.0 45 4.2 CALM 0 0 0 0 1026.5 1026.3 0.0
14/07:00am 5.1 2.5 -5.3 47 3.5 CALM 0 0 0 0 1025.9 1025.7 0.0
14/06:30am 4.4 1.8 -4.6 52 3.1 CALM 0 0 0 0 1025.4 1025.2 0.0
14/06:00am 4.1 1.5 -5.1 51 3.1 CALM 0 0 0 0 1025.1 1024.8 0.0
14/05:30am 5.0 2.5 -4.0 52 3.1 CALM 0 0 0 0 1024.8 1024.5 0.0
14/05:00am 5.0 2.5 -4.3 51 3.2 CALM 0 0 0 0 1024.7 1024.4 0.0
14/04:30am 5.4 2.8 -4.7 48 3.5 CALM 0 0 0 0 1024.6 1024.3 0.0
14/04:00am 5.8 3.2 -4.6 47 3.6 CALM 0 0 0 0 1024.4 1024.1 0.0
14/03:30am 6.4 3.9 -3.8 48 3.6 CALM 0 0 0 0 1024.4 1024.1 0.0
14/03:00am 6.7 4.2 -4.4 45 3.9 CALM 0 0 0 0 1024.4 1024.1 0.0
14/02:30am 7.0 4.4 -4.7 43 4.1 CALM 0 0 0 0 1024.7 1024.4 0.0
14/02:00am 7.4 4.8 -5.3 40 4.4 CALM 0 0 0 0 1024.7 1024.4 0.0
14/01:30am 7.8 5.1 -6.0 37 4.7 CALM 0 0 0 0 1024.9 1024.6 0.0
14/01:00am 8.2 5.6 -5.3 38 4.7 CALM 0 0 0 0 1025.0 1024.7 0.0
14/12:30am 9.0 6.4 -4.9 37 5.0 CALM 0 0 0 0 1025.0 1024.7 0.0
14/12:00am 9.6 7.0 -4.7 36 5.2 CALM 0 0 0 0 1025.1 1024.8 0.0
 
Date/Time
EST
Temp
°C
App
Temp
°C
Dew
Point
°C
Rel
Hum
%
Delta-T
°C
Wind Press
QNH
hPa
Press
MSL
hPa
Rain since
9am
mm
Dir  Spd
km/h
Gust
km/h
Spd
kts
Gust
kts
13/11:30pm 10.2 7.6 -4.9 34 5.5 CALM 0 0 0 0 1025.2 1024.9 0.0
13/11:00pm 10.8 8.3 -4.4 34 5.6 CALM 0 0 0 0 1025.1 1024.8 0.0
13/10:30pm 11.3 8.7 -5.2 31 6.0 CALM 0 0 0 0 1025.1 1024.8 0.0
13/10:00pm 11.8 9.1 -5.6 29 6.3 CALM 0 0 0 0 1024.9 1024.6 0.0
13/09:30pm 12.7 10.2 -4.4 30 6.5 CALM 0 0 0 0 1024.6 1024.3 0.0
13/09:00pm 14.0 11.5 -4.2 28 7.0 CALM 0 0 0 0 1024.4 1024.1 0.0
13/08:30pm 14.7 11.8 -4.1 27 7.3 W 2 7 1 4 1024.2 1024.0 0.0
13/08:00pm 15.5 13.0 -4.4 25 7.8 CALM 0 0 0 0 1023.9 1023.7 0.0
13/07:30pm 17.3 14.7 -4.6 22 8.7 CALM 0 0 0 0 1023.7 1023.5 0.0
13/07:00pm 19.4 15.5 -4.8 19 9.8 SW 7 9 4 5 1023.5 1023.3 0.0
13/06:30pm 22.2 17.6 -4.0 17 11.0 WSW 11 17 6 9 1023.2 1023.0 0.0
13/06:00pm 23.7 18.7 -4.4 15 11.9 WSW 13 20 7 11 1022.9 1022.7 0.0
13/05:30pm 24.9 20.4 -3.5 15 12.4 WSW 11 17 6 9 1022.4 1022.2 0.0
13/05:00pm 25.2 21.0 -4.2 14 12.7 SSW 9 11 5 6 1022.1 1021.9 0.0
13/04:30pm 25.6 20.7 -3.8 14 12.8 WSW 13 22 7 12 1022.1 1021.9 0.0
13/04:00pm 25.6 20.9 -2.1 16 12.4 SW 13 24 7 13 1022.2 1022.0 0.0
13/03:30pm 25.6 19.7 -2.1 16 12.4 SW 19 30 10 16 1022.2 1022.0 0.0
13/03:00pm 25.1 20.0 -1.6 17 12.1 SW 15 24 8 13 1022.3 1022.1 0.0
13/02:30pm 24.5 20.8 0.1 20 11.3 NNW 9 15 5 8 1022.4 1022.2 0.0
13/02:00pm 24.2 20.2 -2.4 17 11.8 WSW 9 19 5 10 1023.0 1022.8 0.0
13/01:30pm 24.3 20.0 -1.5 18 11.6 SW 11 22 6 12 1023.4 1023.2 0.0
13/01:00pm 23.5 19.2 -1.4 19 11.1 SSW 11 19 6 10 1023.8 1023.6 0.0
13/12:30pm 22.6 17.3 -0.8 21 10.5 SSW 17 26 9 14 1024.2 1024.0 0.0
13/12:00pm 22.3 18.8 1.3 25 9.8 W 9 20 5 11 1024.7 1024.4 0.0
13/11:30am 21.6 18.1 1.3 26 9.4 S 9 19 5 10 1025.2 1024.9 0.0
13/11:00am 20.8 17.4 1.6 28 8.9 S 9 17 5 9 1025.5 1025.3 0.0

Other formats

Comma delimited format used in spreadsheet applications
http://www.bom.gov.au/fwo/IDN60801/IDN60801.94710.axf

JavaScript Object Notation format (JSON) in row-major order
http://www.bom.gov.au/fwo/IDN60801/IDN60801.94710.json

Data quality

Most of these data are generated automatically and are frequently updated. Quality checks on data are not normally performed. It is possible for incorrect values to appear. Refer to information at About Latest Weather Observations and please check the disclaimer before using these data.